sensor_id;sensor_type;location;lat;lon;timestamp;pressure;altitude;pressure_sealevel;temperature;humidity
55066;BME280;40964;42.114;24.220;2023-01-28T00:01:11;97079.97;;;2.55;92.71
55066;BME280;40964;42.114;24.220;2023-01-28T00:03:37;97071.69;;;2.66;94.19
55066;BME280;40964;42.114;24.220;2023-01-28T00:06:09;97074.88;;;2.68;94.79
55066;BME280;40964;42.114;24.220;2023-01-28T00:08:36;97069.69;;;2.68;94.80
55066;BME280;40964;42.114;24.220;2023-01-28T00:11:03;97074.19;;;2.60;92.78
55066;BME280;40964;42.114;24.220;2023-01-28T00:13:30;97071.97;;;2.56;92.38
55066;BME280;40964;42.114;24.220;2023-01-28T00:15:57;97083.28;;;2.49;93.26
55066;BME280;40964;42.114;24.220;2023-01-28T00:18:24;97077.56;;;2.39;93.26
55066;BME280;40964;42.114;24.220;2023-01-28T00:21:04;97088.50;;;2.34;93.85
55066;BME280;40964;42.114;24.220;2023-01-28T00:23:33;97091.03;;;2.27;95.86
55066;BME280;40964;42.114;24.220;2023-01-28T00:26:00;97097.09;;;2.35;95.54
55066;BME280;40964;42.114;24.220;2023-01-28T00:28:26;97097.44;;;2.32;95.81
55066;BME280;40964;42.114;24.220;2023-01-28T00:30:51;97096.31;;;2.19;97.21
55066;BME280;40964;42.114;24.220;2023-01-28T00:33:17;97089.69;;;2.17;97.76
55066;BME280;40964;42.114;24.220;2023-01-28T00:35:43;97094.59;;;2.26;97.65
55066;BME280;40964;42.114;24.220;2023-01-28T00:38:08;97093.34;;;2.22;98.53
55066;BME280;40964;42.114;24.220;2023-01-28T00:40:34;97102.56;;;2.25;98.06
55066;BME280;40964;42.114;24.220;2023-01-28T00:43:00;97107.00;;;2.31;98.12
55066;BME280;40964;42.114;24.220;2023-01-28T00:45:26;97112.47;;;2.36;98.52
55066;BME280;40964;42.114;24.220;2023-01-28T00:47:51;97116.06;;;2.35;97.98
55066;BME280;40964;42.114;24.220;2023-01-28T00:50:18;97116.16;;;2.27;98.08
55066;BME280;40964;42.114;24.220;2023-01-28T00:52:46;97120.38;;;2.28;98.71
55066;BME280;40964;42.114;24.220;2023-01-28T00:55:12;97137.91;;;2.26;99.47
55066;BME280;40964;42.114;24.220;2023-01-28T00:57:38;97131.53;;;2.28;99.28
55066;BME280;40964;42.114;24.220;2023-01-28T01:00:04;97122.34;;;2.26;100.00
55066;BME280;40964;42.114;24.220;2023-01-28T01:02:30;97129.84;;;2.21;99.83
55066;BME280;40964;42.114;24.220;2023-01-28T01:04:56;97135.59;;;2.16;100.00
55066;BME280;40964;42.114;24.220;2023-01-28T01:07:27;97131.72;;;2.12;100.00
55066;BME280;40964;42.114;24.220;2023-01-28T01:10:07;97127.09;;;2.08;100.00
55066;BME280;40964;42.114;24.220;2023-01-28T01:12:33;97125.91;;;2.10;100.00
55066;BME280;40964;42.114;24.220;2023-01-28T01:14:59;97112.94;;;2.10;100.00
55066;BME280;40964;42.114;24.220;2023-01-28T01:17:24;97110.97;;;2.12;100.00
55066;BME280;40964;42.114;24.220;2023-01-28T01:19:50;97123.41;;;2.17;99.93
55066;BME280;40964;42.114;24.220;2023-01-28T01:22:15;97133.31;;;2.13;100.00
55066;BME280;40964;42.114;24.220;2023-01-28T01:24:41;97135.81;;;2.07;100.00
55066;BME280;40964;42.114;24.220;2023-01-28T01:27:06;97134.41;;;2.04;100.00
55066;BME280;40964;42.114;24.220;2023-01-28T01:29:32;97136.66;;;2.07;100.00
55066;BME280;40964;42.114;24.220;2023-01-28T01:31:58;97138.69;;;2.12;99.78
55066;BME280;40964;42.114;24.220;2023-01-28T01:34:24;97140.13;;;2.14;97.83
55066;BME280;40964;42.114;24.220;2023-01-28T01:36:50;97136.00;;;2.20;97.38
55066;BME280;40964;42.114;24.220;2023-01-28T01:39:15;97134.50;;;2.11;96.98
55066;BME280;40964;42.114;24.220;2023-01-28T01:41:41;97135.31;;;2.26;96.04
55066;BME280;40964;42.114;24.220;2023-01-28T01:47:41;97153.19;;;2.21;97.52
55066;BME280;40964;42.114;24.220;2023-01-28T01:52:55;97163.31;;;2.16;100.00
55066;BME280;40964;42.114;24.220;2023-01-28T01:55:23;97162.31;;;2.17;98.37
55066;BME280;40964;42.114;24.220;2023-01-28T01:57:53;97148.44;;;2.10;98.96
55066;BME280;40964;42.114;24.220;2023-01-28T02:00:20;97155.69;;;2.14;97.09
55066;BME280;40964;42.114;24.220;2023-01-28T02:02:47;97166.06;;;2.14;93.18
55066;BME280;40964;42.114;24.220;2023-01-28T02:05:16;97169.44;;;2.15;96.51
55066;BME280;40964;42.114;24.220;2023-01-28T02:07:42;97156.22;;;2.10;98.79
55066;BME280;40964;42.114;24.220;2023-01-28T02:10:10;97176.81;;;2.11;91.75
55066;BME280;40964;42.114;24.220;2023-01-28T02:12:40;97168.31;;;2.17;88.26
55066;BME280;40964;42.114;24.220;2023-01-28T02:15:14;97170.34;;;2.22;86.13
55066;BME280;40964;42.114;24.220;2023-01-28T02:17:41;97169.56;;;2.21;85.08
55066;BME280;40964;42.114;24.220;2023-01-28T02:20:09;97176.81;;;2.26;85.63
55066;BME280;40964;42.114;24.220;2023-01-28T02:25:44;97187.09;;;2.19;89.70
55066;BME280;40964;42.114;24.220;2023-01-28T02:33:49;97194.59;;;2.29;84.59
55066;BME280;40964;42.114;24.220;2023-01-28T02:36:44;97201.03;;;2.33;83.20
55066;BME280;40964;42.114;24.220;2023-01-28T02:39:15;97201.50;;;2.37;82.59
55066;BME280;40964;42.114;24.220;2023-01-28T02:41:51;97193.16;;;2.41;81.31
55066;BME280;40964;42.114;24.220;2023-01-28T02:44:17;97196.75;;;2.40;82.06
55066;BME280;40964;42.114;24.220;2023-01-28T02:46:43;97206.13;;;2.41;82.05
55066;BME280;40964;42.114;24.220;2023-01-28T02:49:31;97204.34;;;2.42;81.95
55066;BME280;40964;42.114;24.220;2023-01-28T02:52:24;97210.28;;;2.36;81.35
55066;BME280;40964;42.114;24.220;2023-01-28T02:55:18;97202.75;;;2.41;80.97
55066;BME280;40964;42.114;24.220;2023-01-28T03:03:28;97193.25;;;2.48;81.06
55066;BME280;40964;42.114;24.220;2023-01-28T03:06:01;97192.81;;;2.44;81.13
55066;BME280;40964;42.114;24.220;2023-01-28T03:08:44;97196.03;;;2.46;81.42
55066;BME280;40964;42.114;24.220;2023-01-28T03:11:46;97186.47;;;2.47;80.73
55066;BME280;40964;42.114;24.220;2023-01-28T03:14:32;97207.84;;;2.49;82.74
55066;BME280;40964;42.114;24.220;2023-01-28T03:20:09;97201.22;;;2.61;77.28
55066;BME280;40964;42.114;24.220;2023-01-28T03:22:56;97202.28;;;2.67;77.23
55066;BME280;40964;42.114;24.220;2023-01-28T03:25:44;97192.09;;;2.65;78.57
55066;BME280;40964;42.114;24.220;2023-01-28T03:28:31;97208.91;;;2.69;78.08
55066;BME280;40964;42.114;24.220;2023-01-28T03:31:18;97206.56;;;2.60;79.32
55066;BME280;40964;42.114;24.220;2023-01-28T03:34:03;97211.72;;;2.53;78.73
55066;BME280;40964;42.114;24.220;2023-01-28T03:36:49;97208.22;;;2.61;77.68
55066;BME280;40964;42.114;24.220;2023-01-28T03:39:17;97213.75;;;2.58;77.83
55066;BME280;40964;42.114;24.220;2023-01-28T03:41:57;97221.72;;;2.56;79.76
55066;BME280;40964;42.114;24.220;2023-01-28T03:44:24;97204.91;;;2.52;77.43
55066;BME280;40964;42.114;24.220;2023-01-28T03:47:08;97210.63;;;2.62;77.22
55066;BME280;40964;42.114;24.220;2023-01-28T03:49:38;97223.31;;;2.57;77.81
55066;BME280;40964;42.114;24.220;2023-01-28T03:52:03;97211.88;;;2.51;79.17
55066;BME280;40964;42.114;24.220;2023-01-28T03:54:29;97211.97;;;2.43;79.46
55066;BME280;40964;42.114;24.220;2023-01-28T03:56:54;97225.09;;;2.42;79.12
55066;BME280;40964;42.114;24.220;2023-01-28T03:59:20;97223.16;;;2.44;78.85
55066;BME280;40964;42.114;24.220;2023-01-28T04:01:45;97210.19;;;2.44;77.73
55066;BME280;40964;42.114;24.220;2023-01-28T04:04:11;97215.81;;;2.47;78.08
55066;BME280;40964;42.114;24.220;2023-01-28T04:06:51;97230.59;;;2.47;79.00
55066;BME280;40964;42.114;24.220;2023-01-28T04:09:17;97224.69;;;2.53;77.78
55066;BME280;40964;42.114;24.220;2023-01-28T04:11:43;97229.31;;;2.58;78.00
55066;BME280;40964;42.114;24.220;2023-01-28T04:14:09;97232.28;;;2.54;78.00
55066;BME280;40964;42.114;24.220;2023-01-28T04:16:35;97232.91;;;2.56;77.67
55066;BME280;40964;42.114;24.220;2023-01-28T04:19:00;97239.97;;;2.63;76.58
55066;BME280;40964;42.114;24.220;2023-01-28T04:21:25;97226.09;;;2.55;75.61
55066;BME280;40964;42.114;24.220;2023-01-28T04:23:51;97226.63;;;2.66;75.82
55066;BME280;40964;42.114;24.220;2023-01-28T04:26:16;97240.22;;;2.68;75.71
55066;BME280;40964;42.114;24.220;2023-01-28T04:28:42;97234.94;;;2.76;75.11
55066;BME280;40964;42.114;24.220;2023-01-28T04:31:07;97243.53;;;2.76;75.61
55066;BME280;40964;42.114;24.220;2023-01-28T04:33:33;97243.34;;;2.78;74.33
55066;BME280;40964;42.114;24.220;2023-01-28T04:35:58;97241.22;;;2.81;74.20
55066;BME280;40964;42.114;24.220;2023-01-28T04:38:24;97238.44;;;2.83;73.10
55066;BME280;40964;42.114;24.220;2023-01-28T04:40:50;97243.25;;;2.86;74.94
55066;BME280;40964;42.114;24.220;2023-01-28T04:43:16;97244.25;;;2.85;73.71
55066;BME280;40964;42.114;24.220;2023-01-28T04:45:42;97253.66;;;2.86;72.77
55066;BME280;40964;42.114;24.220;2023-01-28T04:48:08;97250.06;;;2.87;71.31
55066;BME280;40964;42.114;24.220;2023-01-28T04:50:33;97249.81;;;2.97;70.93
55066;BME280;40964;42.114;24.220;2023-01-28T04:52:59;97255.00;;;2.97;72.32
55066;BME280;40964;42.114;24.220;2023-01-28T04:55:25;97260.09;;;2.90;73.10
55066;BME280;40964;42.114;24.220;2023-01-28T04:57:50;97248.44;;;2.86;72.77
55066;BME280;40964;42.114;24.220;2023-01-28T05:00:17;97247.31;;;2.89;70.94
55066;BME280;40964;42.114;24.220;2023-01-28T05:02:42;97264.56;;;2.96;70.77
55066;BME280;40964;42.114;24.220;2023-01-28T05:05:08;97261.63;;;2.99;70.66
55066;BME280;40964;42.114;24.220;2023-01-28T05:07:34;97251.06;;;2.86;71.26
55066;BME280;40964;42.114;24.220;2023-01-28T05:09:59;97264.03;;;3.01;70.51
55066;BME280;40964;42.114;24.220;2023-01-28T05:12:25;97270.94;;;2.94;70.45
55066;BME280;40964;42.114;24.220;2023-01-28T05:14:50;97276.31;;;2.92;72.23
55066;BME280;40964;42.114;24.220;2023-01-28T05:17:16;97283.81;;;2.87;71.77
55066;BME280;40964;42.114;24.220;2023-01-28T05:19:41;97284.00;;;2.85;71.21
55066;BME280;40964;42.114;24.220;2023-01-28T05:22:07;97277.91;;;2.93;70.84
55066;BME280;40964;42.114;24.220;2023-01-28T05:24:33;97293.50;;;2.93;70.20
55066;BME280;40964;42.114;24.220;2023-01-28T05:26:59;97292.16;;;2.97;72.34
55066;BME280;40964;42.114;24.220;2023-01-28T05:29:24;97288.59;;;2.83;72.36
55066;BME280;40964;42.114;24.220;2023-01-28T05:31:50;97288.16;;;2.80;72.58
55066;BME280;40964;42.114;24.220;2023-01-28T05:34:15;97298.53;;;2.80;71.73
55066;BME280;40964;42.114;24.220;2023-01-28T05:36:40;97305.94;;;2.83;72.10
55066;BME280;40964;42.114;24.220;2023-01-28T05:39:06;97303.19;;;2.84;72.48
55066;BME280;40964;42.114;24.220;2023-01-28T05:41:32;97308.19;;;2.86;71.94
55066;BME280;40964;42.114;24.220;2023-01-28T05:43:58;97301.66;;;2.90;71.51
55066;BME280;40964;42.114;24.220;2023-01-28T05:46:23;97309.69;;;2.95;72.05
55066;BME280;40964;42.114;24.220;2023-01-28T05:48:51;97306.84;;;2.90;72.76
55066;BME280;40964;42.114;24.220;2023-01-28T05:51:17;97310.34;;;2.82;75.55
55066;BME280;40964;42.114;24.220;2023-01-28T05:53:42;97320.38;;;2.71;76.62
55066;BME280;40964;42.114;24.220;2023-01-28T05:56:08;97317.69;;;2.64;77.89
55066;BME280;40964;42.114;24.220;2023-01-28T05:58:33;97321.59;;;2.60;78.23
55066;BME280;40964;42.114;24.220;2023-01-28T06:00:59;97333.25;;;2.64;77.69
55066;BME280;40964;42.114;24.220;2023-01-28T06:03:24;97326.72;;;2.68;77.90
55066;BME280;40964;42.114;24.220;2023-01-28T06:05:50;97324.47;;;2.65;77.98
55066;BME280;40964;42.114;24.220;2023-01-28T06:08:15;97335.41;;;2.75;78.02
55066;BME280;40964;42.114;24.220;2023-01-28T06:10:41;97331.47;;;2.65;78.81
55066;BME280;40964;42.114;24.220;2023-01-28T06:13:06;97330.47;;;2.66;80.07
55066;BME280;40964;42.114;24.220;2023-01-28T06:15:32;97334.50;;;2.68;79.72
55066;BME280;40964;42.114;24.220;2023-01-28T06:17:57;97347.22;;;2.63;79.20
55066;BME280;40964;42.114;24.220;2023-01-28T06:20:23;97347.56;;;2.60;80.29
55066;BME280;40964;42.114;24.220;2023-01-28T06:22:50;97334.31;;;2.55;81.82
55066;BME280;40964;42.114;24.220;2023-01-28T06:25:16;97341.66;;;2.66;81.23
55066;BME280;40964;42.114;24.220;2023-01-28T06:27:41;97344.81;;;2.62;81.81
55066;BME280;40964;42.114;24.220;2023-01-28T06:30:07;97356.38;;;2.74;81.81
55066;BME280;40964;42.114;24.220;2023-01-28T06:32:33;97374.28;;;2.83;81.00
55066;BME280;40964;42.114;24.220;2023-01-28T06:34:58;97373.09;;;2.86;81.66
55066;BME280;40964;42.114;24.220;2023-01-28T06:37:24;97369.88;;;2.84;78.68
55066;BME280;40964;42.114;24.220;2023-01-28T06:39:50;97377.22;;;2.95;76.90
55066;BME280;40964;42.114;24.220;2023-01-28T06:42:15;97378.50;;;2.99;77.06
55066;BME280;40964;42.114;24.220;2023-01-28T06:44:41;97388.72;;;3.16;74.88
55066;BME280;40964;42.114;24.220;2023-01-28T06:47:06;97387.56;;;3.18;73.30
55066;BME280;40964;42.114;24.220;2023-01-28T06:49:33;97388.78;;;3.22;72.48
55066;BME280;40964;42.114;24.220;2023-01-28T06:51:58;97391.66;;;3.27;73.00
55066;BME280;40964;42.114;24.220;2023-01-28T06:54:24;97390.78;;;3.20;72.27
55066;BME280;40964;42.114;24.220;2023-01-28T06:56:49;97398.84;;;3.25;71.36
55066;BME280;40964;42.114;24.220;2023-01-28T06:59:15;97397.50;;;3.29;72.45
55066;BME280;40964;42.114;24.220;2023-01-28T07:01:40;97385.75;;;3.33;73.37
55066;BME280;40964;42.114;24.220;2023-01-28T07:04:05;97402.22;;;3.40;72.37
55066;BME280;40964;42.114;24.220;2023-01-28T07:06:31;97398.28;;;3.45;72.05
55066;BME280;40964;42.114;24.220;2023-01-28T07:08:57;97396.31;;;3.47;71.70
55066;BME280;40964;42.114;24.220;2023-01-28T07:11:22;97401.78;;;3.52;71.79
55066;BME280;40964;42.114;24.220;2023-01-28T07:13:48;97409.59;;;3.52;70.71
55066;BME280;40964;42.114;24.220;2023-01-28T07:16:13;97415.78;;;3.51;70.37
55066;BME280;40964;42.114;24.220;2023-01-28T07:18:39;97412.34;;;3.50;71.09
55066;BME280;40964;42.114;24.220;2023-01-28T07:21:04;97423.03;;;3.55;70.27
55066;BME280;40964;42.114;24.220;2023-01-28T07:23:30;97432.81;;;3.53;70.16
55066;BME280;40964;42.114;24.220;2023-01-28T07:26:02;97427.31;;;3.48;70.90
55066;BME280;40964;42.114;24.220;2023-01-28T07:28:28;97431.38;;;3.51;71.53
55066;BME280;40964;42.114;24.220;2023-01-28T07:30:54;97429.50;;;3.45;73.20
55066;BME280;40964;42.114;24.220;2023-01-28T07:33:19;97440.59;;;3.53;73.34
55066;BME280;40964;42.114;24.220;2023-01-28T07:35:45;97437.81;;;3.55;71.74
55066;BME280;40964;42.114;24.220;2023-01-28T07:38:11;97426.34;;;3.49;73.59
55066;BME280;40964;42.114;24.220;2023-01-28T07:40:37;97449.03;;;3.55;70.01
55066;BME280;40964;42.114;24.220;2023-01-28T07:43:03;97446.84;;;3.59;72.19
55066;BME280;40964;42.114;24.220;2023-01-28T07:45:29;97459.84;;;3.59;71.77
55066;BME280;40964;42.114;24.220;2023-01-28T07:48:01;97454.41;;;3.54;71.33
55066;BME280;40964;42.114;24.220;2023-01-28T07:50:28;97456.00;;;3.55;71.92
55066;BME280;40964;42.114;24.220;2023-01-28T07:52:57;97460.94;;;3.50;72.98
55066;BME280;40964;42.114;24.220;2023-01-28T07:55:23;97455.91;;;3.48;72.10
55066;BME280;40964;42.114;24.220;2023-01-28T07:57:52;97458.34;;;3.50;72.71
55066;BME280;40964;42.114;24.220;2023-01-28T08:00:19;97445.00;;;3.53;72.68
55066;BME280;40964;42.114;24.220;2023-01-28T08:02:45;97464.63;;;3.55;74.20
55066;BME280;40964;42.114;24.220;2023-01-28T08:05:18;97453.69;;;3.45;71.26
55066;BME280;40964;42.114;24.220;2023-01-28T08:07:45;97463.19;;;3.53;71.84
55066;BME280;40964;42.114;24.220;2023-01-28T08:10:11;97462.44;;;3.59;71.44
55066;BME280;40964;42.114;24.220;2023-01-28T08:12:37;97476.34;;;3.66;71.26
55066;BME280;40964;42.114;24.220;2023-01-28T08:15:03;97467.31;;;3.62;70.80
55066;BME280;40964;42.114;24.220;2023-01-28T08:17:29;97476.25;;;3.59;70.99
55066;BME280;40964;42.114;24.220;2023-01-28T08:19:55;97475.72;;;3.64;72.28
55066;BME280;40964;42.114;24.220;2023-01-28T08:22:24;97476.44;;;3.58;71.40
55066;BME280;40964;42.114;24.220;2023-01-28T08:24:50;97475.56;;;3.51;71.20
55066;BME280;40964;42.114;24.220;2023-01-28T08:27:15;97476.19;;;3.53;71.64
55066;BME280;40964;42.114;24.220;2023-01-28T08:29:40;97486.84;;;3.58;72.77
55066;BME280;40964;42.114;24.220;2023-01-28T08:32:08;97473.66;;;3.59;73.44
55066;BME280;40964;42.114;24.220;2023-01-28T08:34:33;97498.06;;;3.73;73.11
55066;BME280;40964;42.114;24.220;2023-01-28T08:36:58;97488.91;;;3.62;70.55
55066;BME280;40964;42.114;24.220;2023-01-28T08:39:24;97475.81;;;3.70;73.76
55066;BME280;40964;42.114;24.220;2023-01-28T08:41:49;97494.94;;;3.78;70.88
55066;BME280;40964;42.114;24.220;2023-01-28T08:44:15;97489.53;;;3.79;72.05
55066;BME280;40964;42.114;24.220;2023-01-28T08:46:40;97515.63;;;3.86;73.80
55066;BME280;40964;42.114;24.220;2023-01-28T08:49:05;97499.38;;;3.84;71.65
55066;BME280;40964;42.114;24.220;2023-01-28T08:51:31;97499.66;;;3.89;73.07
55066;BME280;40964;42.114;24.220;2023-01-28T08:53:56;97511.59;;;3.83;70.75
55066;BME280;40964;42.114;24.220;2023-01-28T08:56:22;97507.56;;;3.81;71.26
55066;BME280;40964;42.114;24.220;2023-01-28T08:58:48;97516.78;;;3.83;70.96
55066;BME280;40964;42.114;24.220;2023-01-28T09:01:13;97513.19;;;3.84;71.92
55066;BME280;40964;42.114;24.220;2023-01-28T09:03:39;97521.09;;;3.76;70.93
55066;BME280;40964;42.114;24.220;2023-01-28T09:06:04;97504.63;;;3.69;72.00
55066;BME280;40964;42.114;24.220;2023-01-28T09:08:30;97510.34;;;3.79;73.07
55066;BME280;40964;42.114;24.220;2023-01-28T09:10:58;97527.72;;;3.93;73.05
55066;BME280;40964;42.114;24.220;2023-01-28T09:13:24;97523.69;;;3.91;70.00
55066;BME280;40964;42.114;24.220;2023-01-28T09:15:50;97527.09;;;3.91;71.21
55066;BME280;40964;42.114;24.220;2023-01-28T09:18:16;97520.72;;;3.94;70.74
55066;BME280;40964;42.114;24.220;2023-01-28T09:20:42;97531.13;;;3.94;71.98
55066;BME280;40964;42.114;24.220;2023-01-28T09:23:08;97516.16;;;3.96;70.99
55066;BME280;40964;42.114;24.220;2023-01-28T09:25:34;97523.31;;;3.94;70.16
55066;BME280;40964;42.114;24.220;2023-01-28T09:28:03;97528.09;;;3.90;69.25
55066;BME280;40964;42.114;24.220;2023-01-28T09:30:29;97525.97;;;3.79;69.86
55066;BME280;40964;42.114;24.220;2023-01-28T09:32:55;97526.50;;;3.89;71.93
55066;BME280;40964;42.114;24.220;2023-01-28T09:35:23;97524.13;;;3.94;70.05
55066;BME280;40964;42.114;24.220;2023-01-28T09:37:48;97522.34;;;3.95;70.53
55066;BME280;40964;42.114;24.220;2023-01-28T09:45:49;97532.13;;;3.93;69.59
55066;BME280;40964;42.114;24.220;2023-01-28T09:48:18;97525.03;;;4.02;70.61
55066;BME280;40964;42.114;24.220;2023-01-28T09:50:48;97526.72;;;4.09;71.43
55066;BME280;40964;42.114;24.220;2023-01-28T09:53:27;97527.09;;;4.06;71.13
55066;BME280;40964;42.114;24.220;2023-01-28T09:58:25;97520.09;;;3.92;69.47
55066;BME280;40964;42.114;24.220;2023-01-28T10:19:59;97524.22;;;4.01;70.76
55066;BME280;40964;42.114;24.220;2023-01-28T10:22:35;97530.31;;;4.08;71.99
55066;BME280;40964;42.114;24.220;2023-01-28T10:25:06;97524.31;;;4.08;72.49
55066;BME280;40964;42.114;24.220;2023-01-28T10:27:40;97531.13;;;4.09;71.13
55066;BME280;40964;42.114;24.220;2023-01-28T10:30:19;97531.50;;;4.06;70.89
55066;BME280;40964;42.114;24.220;2023-01-28T10:33:15;97526.09;;;4.07;71.83
55066;BME280;40964;42.114;24.220;2023-01-28T10:35:42;97524.56;;;4.13;71.05
55066;BME280;40964;42.114;24.220;2023-01-28T10:38:13;97527.63;;;4.16;71.86
55066;BME280;40964;42.114;24.220;2023-01-28T10:40:41;97534.81;;;4.14;70.88
55066;BME280;40964;42.114;24.220;2023-01-28T10:43:06;97529.59;;;4.14;72.15
55066;BME280;40964;42.114;24.220;2023-01-28T10:48:28;97534.88;;;4.21;70.27
55066;BME280;40964;42.114;24.220;2023-01-28T10:50:58;97517.28;;;4.23;69.98
55066;BME280;40964;42.114;24.220;2023-01-28T10:56:02;97533.47;;;4.40;72.18
55066;BME280;40964;42.114;24.220;2023-01-28T10:58:33;97523.03;;;4.54;71.17
55066;BME280;40964;42.114;24.220;2023-01-28T11:01:02;97528.66;;;4.58;72.09
55066;BME280;40964;42.114;24.220;2023-01-28T11:03:29;97524.41;;;4.72;70.60
55066;BME280;40964;42.114;24.220;2023-01-28T11:06:00;97526.41;;;4.70;69.62
55066;BME280;40964;42.114;24.220;2023-01-28T11:08:28;97529.31;;;4.81;71.40
55066;BME280;40964;42.114;24.220;2023-01-28T11:10:55;97524.91;;;4.82;70.58
55066;BME280;40964;42.114;24.220;2023-01-28T11:13:23;97530.13;;;4.82;70.86
55066;BME280;40964;42.114;24.220;2023-01-28T11:16:02;97538.97;;;4.66;69.70
55066;BME280;40964;42.114;24.220;2023-01-28T11:18:39;97530.81;;;4.69;69.55
55066;BME280;40964;42.114;24.220;2023-01-28T11:21:12;97524.69;;;4.77;70.37
55066;BME280;40964;42.114;24.220;2023-01-28T11:26:21;97528.44;;;4.96;70.72
55066;BME280;40964;42.114;24.220;2023-01-28T11:28:49;97517.03;;;4.75;68.65
55066;BME280;40964;42.114;24.220;2023-01-28T11:31:16;97525.03;;;4.74;69.79
55066;BME280;40964;42.114;24.220;2023-01-28T11:36:21;97526.97;;;4.87;70.23
55066;BME280;40964;42.114;24.220;2023-01-28T11:38:55;97530.41;;;4.94;69.75
55066;BME280;40964;42.114;24.220;2023-01-28T11:43:50;97524.41;;;4.93;68.42
55066;BME280;40964;42.114;24.220;2023-01-28T11:52:18;97528.75;;;5.07;68.33
55066;BME280;40964;42.114;24.220;2023-01-28T11:57:25;97522.00;;;5.20;66.49
55066;BME280;40964;42.114;24.220;2023-01-28T12:05:48;97543.84;;;5.40;66.72
55066;BME280;40964;42.114;24.220;2023-01-28T12:08:42;97518.84;;;5.24;66.96
55066;BME280;40964;42.114;24.220;2023-01-28T12:13:51;97536.53;;;5.29;65.84
55066;BME280;40964;42.114;24.220;2023-01-28T12:42:09;97545.38;;;5.06;64.76
55066;BME280;40964;42.114;24.220;2023-01-28T12:44:41;97548.78;;;5.07;65.41
55066;BME280;40964;42.114;24.220;2023-01-28T12:47:14;97550.09;;;4.96;64.56
55066;BME280;40964;42.114;24.220;2023-01-28T12:49:47;97550.47;;;4.93;63.77
55066;BME280;40964;42.114;24.220;2023-01-28T12:52:34;97557.59;;;4.84;65.47
55066;BME280;40964;42.114;24.220;2023-01-28T12:58:00;97558.09;;;4.73;67.30
55066;BME280;40964;42.114;24.220;2023-01-28T13:00:33;97561.50;;;4.74;66.61
55066;BME280;40964;42.114;24.220;2023-01-28T13:05:50;97559.66;;;4.68;68.26
55066;BME280;40964;42.114;24.220;2023-01-28T13:08:22;97566.16;;;4.78;68.56
55066;BME280;40964;42.114;24.220;2023-01-28T13:10:48;97576.25;;;4.67;68.47
55066;BME280;40964;42.114;24.220;2023-01-28T13:13:35;97574.72;;;4.72;68.79
55066;BME280;40964;42.114;24.220;2023-01-28T13:16:02;97576.81;;;4.62;68.14
55066;BME280;40964;42.114;24.220;2023-01-28T13:18:42;97577.22;;;4.66;69.80
55066;BME280;40964;42.114;24.220;2023-01-28T13:21:41;97583.81;;;4.62;69.16
55066;BME280;40964;42.114;24.220;2023-01-28T13:24:20;97581.13;;;4.55;69.08
55066;BME280;40964;42.114;24.220;2023-01-28T13:29:32;97585.16;;;4.57;68.83
55066;BME280;40964;42.114;24.220;2023-01-28T13:32:00;97581.41;;;4.45;69.73
55066;BME280;40964;42.114;24.220;2023-01-28T13:34:38;97587.72;;;4.51;68.15
55066;BME280;40964;42.114;24.220;2023-01-28T13:40:51;97593.53;;;4.38;69.37
55066;BME280;40964;42.114;24.220;2023-01-28T13:43:04;97602.44;;;4.29;67.75
55066;BME280;40964;42.114;24.220;2023-01-28T13:45:31;97600.84;;;4.28;69.70
55066;BME280;40964;42.114;24.220;2023-01-28T13:48:28;97603.72;;;4.33;67.96
55066;BME280;40964;42.114;24.220;2023-01-28T13:50:56;97603.63;;;4.41;68.85
55066;BME280;40964;42.114;24.220;2023-01-28T13:56:05;97606.13;;;4.49;66.98
55066;BME280;40964;42.114;24.220;2023-01-28T14:20:19;97631.44;;;4.41;67.58
55066;BME280;40964;42.114;24.220;2023-01-28T14:22:47;97639.69;;;4.44;67.89
55066;BME280;40964;42.114;24.220;2023-01-28T14:25:15;97637.38;;;4.49;68.25
55066;BME280;40964;42.114;24.220;2023-01-28T14:27:49;97636.72;;;4.47;66.98
55066;BME280;40964;42.114;24.220;2023-01-28T14:33:02;97638.97;;;4.50;66.11
55066;BME280;40964;42.114;24.220;2023-01-28T14:35:30;97638.28;;;4.42;67.63
55066;BME280;40964;42.114;24.220;2023-01-28T14:37:58;97653.72;;;4.43;66.32
55066;BME280;40964;42.114;24.220;2023-01-28T14:40:27;97654.06;;;4.40;64.77
55066;BME280;40964;42.114;24.220;2023-01-28T14:42:54;97650.09;;;4.30;66.26
55066;BME280;40964;42.114;24.220;2023-01-28T14:45:35;97654.25;;;4.24;67.29
55066;BME280;40964;42.114;24.220;2023-01-28T14:48:24;97652.53;;;4.16;66.65
55066;BME280;40964;42.114;24.220;2023-01-28T14:56:35;97667.94;;;4.03;68.98
55066;BME280;40964;42.114;24.220;2023-01-28T15:01:43;97671.22;;;4.05;69.68
55066;BME280;40964;42.114;24.220;2023-01-28T15:04:28;97671.53;;;4.02;70.49
55066;BME280;40964;42.114;24.220;2023-01-28T15:06:54;97669.22;;;4.07;70.04
55066;BME280;40964;42.114;24.220;2023-01-28T15:09:21;97671.47;;;4.10;69.62
55066;BME280;40964;42.114;24.220;2023-01-28T15:11:50;97673.44;;;4.08;69.40
55066;BME280;40964;42.114;24.220;2023-01-28T15:14:28;97674.69;;;4.12;69.92
55066;BME280;40964;42.114;24.220;2023-01-28T15:16:54;97681.50;;;4.13;70.26
55066;BME280;40964;42.114;24.220;2023-01-28T15:19:29;97686.72;;;4.13;70.80
55066;BME280;40964;42.114;24.220;2023-01-28T15:21:57;97688.88;;;4.10;70.98
55066;BME280;40964;42.114;24.220;2023-01-28T15:24:23;97681.94;;;4.02;69.79
55066;BME280;40964;42.114;24.220;2023-01-28T15:26:49;97695.16;;;4.01;69.56
55066;BME280;40964;42.114;24.220;2023-01-28T15:29:32;97699.97;;;4.04;71.00
55066;BME280;40964;42.114;24.220;2023-01-28T15:31:59;97698.72;;;3.99;71.37
55066;BME280;40964;42.114;24.220;2023-01-28T15:34:25;97697.00;;;3.92;70.18
55066;BME280;40964;42.114;24.220;2023-01-28T15:36:57;97702.56;;;3.89;70.69
55066;BME280;40964;42.114;24.220;2023-01-28T15:39:25;97704.63;;;3.93;72.80
55066;BME280;40964;42.114;24.220;2023-01-28T15:42:00;97706.97;;;3.88;72.52
55066;BME280;40964;42.114;24.220;2023-01-28T15:44:31;97712.88;;;3.82;72.34